Portada
METAR-TAF:

METAR-TAF

Aeropuertos :

Aeroparque Jorge Newbery

Buenos Aires, Argentina

latitud: 34-34S, longitud: 058-25W, altitud: 6 m

Observación

El informe se hizo hace 1 hora y 1 minutos, a las 23:00 UTC
Viento 1 kt con dirección variable
Temperatura 9°C
Humedad 71%
Presión 1035 hPa
Visibilidad: 5000 m
neblina,

METAR: SABE 122300Z VRB01KT 5000 BR NSC 09/04 Q1035 NOSIG

Hora: 21:01 (00:01 UTC)

Pronóstico

El informe se hizo hace 1 hora y 1 minutos, a las 23:00 UTC
Pronóstico válido del 13 a las 00 UTC al 13 a las 24 UTC
Viento 3 kt con dirección variable
Visibilidad: 5000 m
Temporalmente
del 13 a las 02 UTC al 13 a las 08 UTC
Visibilidad: 3000 m
neblina,

TAF: SABE 122300Z 1300/1324 VRB03KT 5000 NSC TX13/1317Z TN06/1311Z TEMPO 1302/1308 3000 BR

Observaciones y pronósticos meteorológicos de más de 4000 aeropuertos (mensajes METAR y TAF).

Los puntos amarillos y rojos representan las estaciones disponibles.

Ponga el ratón en el punto deseado para ver el nombre de la estación.

Haga clic para ver las observaciones y los pronósticos meteorológicos.

Para cambiar el mapa : haga clic en los botones verdes con una cruz de color negro para hacer un zoom, en el botón verde con un guión para alejar o en las flechas verdes para mapas adyacentes.


METAR-TAF: